createdAt,value
2023-05-17T00:02:33.705Z,18.60
2023-05-17T00:05:35.704Z,17.33
2023-05-17T00:08:37.612Z,13.90
2023-05-17T00:11:39.590Z,19.25
2023-05-17T00:14:41.602Z,19.35
2023-05-17T00:17:43.520Z,17.13
2023-05-17T00:20:45.318Z,24.70
2023-05-17T00:23:47.253Z,16.83
2023-05-17T00:26:49.177Z,19.45
2023-05-17T00:29:51.127Z,17.20
2023-05-17T00:32:53.204Z,17.05
2023-05-17T00:35:55.181Z,15.90
2023-05-17T00:38:57.141Z,18.27
2023-05-17T00:42:01.117Z,18.58
2023-05-17T00:45:03.331Z,21.38
2023-05-17T00:48:05.753Z,17.00
2023-05-17T00:51:08.564Z,18.93
2023-05-17T00:54:10.735Z,17.48
2023-05-17T00:57:13.004Z,17.98
2023-05-17T01:00:15.232Z,17.00
2023-05-17T01:03:17.280Z,17.23
2023-05-17T01:06:19.628Z,18.97
2023-05-17T01:09:21.974Z,15.10
2023-05-17T01:12:54.937Z,16.00
2023-05-17T01:16:16.313Z,17.55
2023-05-17T01:19:23.916Z,18.38
2023-05-17T01:22:37.914Z,19.30
2023-05-17T01:26:12.168Z,16.15
2023-05-17T01:29:16.346Z,18.65
2023-05-17T01:32:18.555Z,20.27
2023-05-17T01:35:20.555Z,16.98
2023-05-17T01:38:22.539Z,17.13
2023-05-17T01:41:34.329Z,19.58
2023-05-17T01:44:59.190Z,18.50
2023-05-17T01:48:20.466Z,17.02
2023-05-17T01:51:28.584Z,17.20
2023-05-17T01:54:49.756Z,18.93
2023-05-17T01:57:56.469Z,17.83
2023-05-17T02:01:01.335Z,18.27
2023-05-17T02:04:03.610Z,17.58
2023-05-17T02:07:05.793Z,18.27
2023-05-17T02:10:08.601Z,17.07
2023-05-17T02:13:10.989Z,17.23
2023-05-17T02:16:12.958Z,18.85
2023-05-17T02:19:15.370Z,18.08
2023-05-17T02:22:17.364Z,20.98
2023-05-17T02:25:19.331Z,20.43
2023-05-17T02:28:21.332Z,22.48
2023-05-17T02:31:25.079Z,18.13
2023-05-17T02:34:26.964Z,19.17
2023-05-17T02:37:29.310Z,20.52
2023-05-17T02:40:31.554Z,26.10
2023-05-17T02:43:33.422Z,17.75
2023-05-17T02:46:38.239Z,21.15
2023-05-17T02:49:40.454Z,20.63
2023-05-17T02:52:42.458Z,20.70
2023-05-17T02:55:44.543Z,22.57
2023-05-17T02:58:46.545Z,20.45
2023-05-17T03:01:49.918Z,22.08
2023-05-17T03:04:51.952Z,25.67
2023-05-17T03:07:53.946Z,21.30
2023-05-17T03:10:55.819Z,23.27
2023-05-17T03:13:57.688Z,22.98
2023-05-17T03:16:59.911Z,23.13
2023-05-17T03:20:01.968Z,22.95
2023-05-17T03:23:04.002Z,24.10
2023-05-17T03:26:05.944Z,30.37
2023-05-17T03:29:07.938Z,22.05
2023-05-17T03:32:10.017Z,28.17
2023-05-17T03:35:11.927Z,25.58
2023-05-17T03:38:13.953Z,22.38
2023-05-17T03:41:17.431Z,23.87
2023-05-17T03:44:19.476Z,25.95
2023-05-17T03:47:24.099Z,23.05
2023-05-17T03:50:26.205Z,20.90
2023-05-17T03:53:28.548Z,22.35
2023-05-17T03:56:31.440Z,19.70
2023-05-17T03:59:33.433Z,21.70
2023-05-17T04:02:35.513Z,21.35
2023-05-17T04:05:37.549Z,24.25
2023-05-17T04:08:39.587Z,23.65
2023-05-17T04:11:42.728Z,23.63
2023-05-17T04:14:44.703Z,28.83
2023-05-17T04:17:46.703Z,22.05
2023-05-17T04:20:49.591Z,22.65
2023-05-17T04:23:51.649Z,19.63
2023-05-17T04:26:53.754Z,21.67
2023-05-17T04:29:56.254Z,21.17
2023-05-17T04:32:58.847Z,22.63
2023-05-17T04:36:00.873Z,20.55
2023-05-17T04:39:03.722Z,21.63
2023-05-17T04:42:05.881Z,22.57
2023-05-17T04:45:08.015Z,17.45
2023-05-17T04:48:12.404Z,22.38
2023-05-17T04:51:14.531Z,20.02
2023-05-17T04:54:17.008Z,24.15
2023-05-17T04:57:22.026Z,22.87
2023-05-17T05:00:24.052Z,23.58
2023-05-17T05:03:26.591Z,21.77
2023-05-17T05:06:28.762Z,23.85
2023-05-17T05:09:30.798Z,18.75
2023-05-17T05:12:33.081Z,21.47
2023-05-17T05:15:35.158Z,17.23
2023-05-17T05:18:37.585Z,16.35
2023-05-17T05:21:40.110Z,21.17
2023-05-17T05:24:45.025Z,21.65
2023-05-17T05:27:47.331Z,16.70
2023-05-17T05:30:49.593Z,17.90
2023-05-17T05:33:52.021Z,22.33
2023-05-17T05:36:54.221Z,18.02
2023-05-17T05:39:56.656Z,17.83
2023-05-17T05:42:58.778Z,17.90
2023-05-17T05:46:03.834Z,18.33
2023-05-17T05:49:11.069Z,17.15
2023-05-17T05:52:17.689Z,24.70
2023-05-17T05:55:19.884Z,22.88
2023-05-17T05:58:22.279Z,22.13
2023-05-17T06:01:26.712Z,19.50
2023-05-17T06:04:40.606Z,21.17
2023-05-17T06:07:54.970Z,18.92
2023-05-17T06:11:17.914Z,20.83
2023-05-17T06:14:22.125Z,24.60
2023-05-17T06:17:27.332Z,20.08
2023-05-17T06:20:33.211Z,21.48
2023-05-17T06:23:38.281Z,27.15
2023-05-17T06:26:41.234Z,26.45
2023-05-17T06:29:43.258Z,24.17
2023-05-17T06:32:47.251Z,27.98
2023-05-17T06:35:56.898Z,25.63
2023-05-17T06:39:00.407Z,25.38
2023-05-17T06:42:03.465Z,28.80
2023-05-17T06:45:06.564Z,30.93
2023-05-17T06:48:09.064Z,25.00
2023-05-17T06:51:13.515Z,26.77
2023-05-17T06:54:27.804Z,22.38
2023-05-17T06:57:36.974Z,22.20
2023-05-17T07:00:41.909Z,25.80
2023-05-17T07:03:49.498Z,26.83
2023-05-17T07:06:57.786Z,26.35
2023-05-17T07:10:00.813Z,27.60
2023-05-17T07:13:09.392Z,24.10
2023-05-17T07:16:15.477Z,23.57
2023-05-17T07:19:27.776Z,23.55
2023-05-17T07:22:30.390Z,27.25
2023-05-17T07:25:40.682Z,27.08
2023-05-17T07:28:42.982Z,24.10
2023-05-17T07:31:47.870Z,25.63
2023-05-17T07:34:53.886Z,28.23
2023-05-17T07:37:56.000Z,26.80
2023-05-17T07:41:01.010Z,24.90
2023-05-17T07:44:03.695Z,26.10
2023-05-17T07:47:15.540Z,26.50
2023-05-17T07:50:20.107Z,27.20
2023-05-17T07:53:26.564Z,28.70
2023-05-17T07:56:31.409Z,30.75
2023-05-17T07:59:41.284Z,32.75
2023-05-17T08:03:23.439Z,31.67
2023-05-17T08:06:54.145Z,30.15
2023-05-17T08:10:38.248Z,36.83
2023-05-17T08:13:44.457Z,25.95
2023-05-17T08:16:49.651Z,29.85
2023-05-17T08:19:53.621Z,34.00
2023-05-17T08:23:04.470Z,32.08
2023-05-17T08:26:26.273Z,37.00
2023-05-17T08:29:53.366Z,31.10
2023-05-17T08:33:16.060Z,31.02
2023-05-17T08:36:29.357Z,28.60
2023-05-17T08:39:44.110Z,28.98
2023-05-17T08:42:51.281Z,39.45
2023-05-17T08:45:54.730Z,36.47
2023-05-17T08:49:16.858Z,34.55
2023-05-17T08:52:34.301Z,36.80
2023-05-17T08:56:11.365Z,31.25
2023-05-17T09:02:17.499Z,31.33
2023-05-17T09:03:24.045Z,33.58
2023-05-17T09:06:39.482Z,32.28
2023-05-17T09:09:56.380Z,27.67
2023-05-17T09:13:14.270Z,31.67
2023-05-17T09:16:41.531Z,30.42
2023-05-17T09:24:06.339Z,35.33
2023-05-17T09:27:17.568Z,27.93
2023-05-17T09:30:21.283Z,24.48
2023-05-17T09:33:24.703Z,27.65
2023-05-17T09:37:01.893Z,25.00
2023-05-17T09:40:07.438Z,31.45
2023-05-17T09:43:36.439Z,31.77
2023-05-17T09:46:50.486Z,24.10
2023-05-17T09:50:29.619Z,25.10
2023-05-17T09:53:45.312Z,27.70
2023-05-17T09:57:05.484Z,28.35
2023-05-17T10:00:35.418Z,26.20
2023-05-17T10:04:08.698Z,26.63
2023-05-17T10:08:25.456Z,30.63
2023-05-17T10:12:06.201Z,25.83
2023-05-17T10:15:46.571Z,26.30
2023-05-17T10:19:19.955Z,24.30
2023-05-17T10:22:34.422Z,25.55
2023-05-17T10:25:54.569Z,22.85
2023-05-17T10:29:22.110Z,23.10
2023-05-17T10:32:33.122Z,21.85
2023-05-17T10:35:43.816Z,21.23
2023-05-17T10:39:08.856Z,22.23
2023-05-17T10:42:22.464Z,21.08
2023-05-17T10:45:27.638Z,21.60
2023-05-17T10:48:38.756Z,21.05
2023-05-17T10:55:45.869Z,14.77
2023-05-17T10:56:11.340Z,12.43
2023-05-17T10:59:33.882Z,16.33
2023-05-17T11:02:41.217Z,13.55
2023-05-17T11:06:32.698Z,14.68
2023-05-17T11:10:51.447Z,12.00
2023-05-17T11:18:34.343Z,9.88
2023-05-17T11:20:25.360Z,11.02
2023-05-17T11:21:49.000Z,11.05
2023-05-17T11:24:59.683Z,7.70
2023-05-17T11:28:33.071Z,9.27
2023-05-17T11:32:14.598Z,8.05
2023-05-17T11:39:33.474Z,8.30
2023-05-17T11:45:53.525Z,9.43
2023-05-17T11:46:30.352Z,10.17
2023-05-17T11:49:54.931Z,8.35
2023-05-17T11:55:36.135Z,8.30
2023-05-17T11:57:00.392Z,9.23
2023-05-17T12:00:37.614Z,10.13
2023-05-17T12:03:48.653Z,12.13
2023-05-17T12:07:03.457Z,11.80
2023-05-17T12:10:14.596Z,8.80
2023-05-17T12:13:39.817Z,5.63
2023-05-17T12:17:12.622Z,7.35
2023-05-17T12:20:36.680Z,7.83
2023-05-17T12:23:41.658Z,7.75
2023-05-17T12:26:45.366Z,6.63
2023-05-17T12:29:48.950Z,7.78
2023-05-17T12:32:54.375Z,6.82
2023-05-17T12:35:56.860Z,6.37
2023-05-17T12:39:05.720Z,7.22
2023-05-17T12:42:09.020Z,8.55
2023-05-17T12:45:13.165Z,6.25
2023-05-17T12:48:15.480Z,7.65
2023-05-17T12:51:21.521Z,15.10
2023-05-17T12:54:28.466Z,8.55
2023-05-17T12:57:33.975Z,8.38
2023-05-17T13:00:38.152Z,11.73
2023-05-17T13:03:51.271Z,5.53
2023-05-17T13:06:58.015Z,6.57
2023-05-17T13:10:00.265Z,7.30
2023-05-17T13:13:03.324Z,6.63
2023-05-17T13:16:06.374Z,6.53
2023-05-17T13:19:15.465Z,6.93
2023-05-17T13:22:20.131Z,6.30
2023-05-17T13:25:23.542Z,7.15
2023-05-17T13:28:26.479Z,7.57
2023-05-17T13:31:28.696Z,4.70
2023-05-17T13:34:30.763Z,4.55
2023-05-17T13:37:32.820Z,6.83
2023-05-17T13:40:34.869Z,7.22
2023-05-17T13:43:37.030Z,7.35
2023-05-17T13:46:39.080Z,5.80
2023-05-17T13:49:42.272Z,6.95
2023-05-17T13:52:44.640Z,7.63
2023-05-17T13:55:46.673Z,8.82
2023-05-17T13:58:49.510Z,5.35
2023-05-17T14:01:51.808Z,6.50
2023-05-17T14:04:56.370Z,4.53
2023-05-17T14:07:58.580Z,6.07
2023-05-17T14:11:06.546Z,6.55
2023-05-17T14:14:18.445Z,4.90
2023-05-17T14:17:20.906Z,8.57
2023-05-17T14:20:24.767Z,5.75
2023-05-17T14:23:26.998Z,8.73
2023-05-17T14:26:29.120Z,4.75
2023-05-17T14:29:32.936Z,11.73
2023-05-17T14:33:02.472Z,6.55
2023-05-17T14:36:07.337Z,5.00
2023-05-17T14:39:22.635Z,6.53
2023-05-17T14:42:33.215Z,5.35
2023-05-17T14:45:37.551Z,5.47
2023-05-17T14:48:39.749Z,6.28
2023-05-17T14:51:45.917Z,3.92
2023-05-17T14:54:48.251Z,5.27
2023-05-17T14:57:53.653Z,5.30
2023-05-17T15:01:05.018Z,5.95
2023-05-17T15:04:10.913Z,4.53
2023-05-17T15:07:14.021Z,4.28
2023-05-17T15:10:17.932Z,4.77
2023-05-17T15:13:20.720Z,4.57
2023-05-17T15:16:23.311Z,8.07
2023-05-17T15:19:25.889Z,3.65
2023-05-17T15:22:28.615Z,2.83
2023-05-17T15:25:31.026Z,3.63
2023-05-17T15:28:46.309Z,4.57
2023-05-17T15:31:48.441Z,5.43
2023-05-17T15:34:53.889Z,2.95
2023-05-17T15:38:02.591Z,4.57
2023-05-17T15:41:06.861Z,5.53
2023-05-17T15:44:09.277Z,2.97
2023-05-17T15:47:12.406Z,3.80
2023-05-17T15:50:14.419Z,2.40
2023-05-17T15:53:16.582Z,4.57
2023-05-17T15:56:21.059Z,1.83
2023-05-17T15:59:23.084Z,2.55
2023-05-17T16:02:26.140Z,4.65
2023-05-17T16:05:28.410Z,3.53
2023-05-17T16:08:30.820Z,3.75
2023-05-17T16:11:46.495Z,1.50
2023-05-17T16:14:50.247Z,3.22
2023-05-17T16:17:56.745Z,1.85
2023-05-17T16:25:02.083Z,1.90
2023-05-17T16:31:53.355Z,3.40
2023-05-17T16:34:55.992Z,1.98
2023-05-17T16:38:01.968Z,3.38
2023-05-17T16:49:09.795Z,2.45
2023-05-17T16:50:13.424Z,2.42
2023-05-17T16:52:33.203Z,2.00
2023-05-17T16:55:44.364Z,4.15
2023-05-17T16:58:46.879Z,1.55
2023-05-17T17:01:48.904Z,1.13
2023-05-17T17:04:51.392Z,2.65
2023-05-17T17:07:53.672Z,2.42
2023-05-17T17:10:55.741Z,2.05
2023-05-17T17:13:58.826Z,1.50
2023-05-17T17:17:01.151Z,1.83
2023-05-17T17:20:14.700Z,2.25
2023-05-17T17:23:18.980Z,2.15
2023-05-17T17:26:22.232Z,2.33
2023-05-17T17:29:27.319Z,2.00
2023-05-17T17:32:30.046Z,2.03
2023-05-17T17:35:32.600Z,2.35
2023-05-17T17:38:35.217Z,1.63
2023-05-17T17:41:38.081Z,3.80
2023-05-17T17:44:40.297Z,3.58
2023-05-17T17:47:42.701Z,2.40
2023-05-17T17:50:44.994Z,4.55
2023-05-17T17:53:49.103Z,3.92
2023-05-17T17:56:51.186Z,3.13
2023-05-17T17:59:54.496Z,2.47
2023-05-17T18:02:57.060Z,3.20
2023-05-17T18:05:59.168Z,6.40
2023-05-17T18:09:01.491Z,3.38
2023-05-17T18:12:03.749Z,3.08
2023-05-17T18:15:06.344Z,2.38
2023-05-17T18:18:08.662Z,3.40
2023-05-17T18:21:11.691Z,2.40
2023-05-17T18:24:14.468Z,3.58
2023-05-17T18:27:18.271Z,2.75
2023-05-17T18:30:20.269Z,3.40
2023-05-17T18:33:22.557Z,5.63
2023-05-17T18:36:24.797Z,5.63
2023-05-17T18:39:27.990Z,3.72
2023-05-17T18:42:30.186Z,3.55
2023-05-17T18:45:36.318Z,3.78
2023-05-17T18:48:39.252Z,5.47
2023-05-17T18:51:41.549Z,2.55
2023-05-17T18:54:43.566Z,4.20
2023-05-17T18:57:46.733Z,4.93
2023-05-17T19:01:06.487Z,5.43
2023-05-17T19:04:17.865Z,2.77
2023-05-17T19:07:24.572Z,2.50
2023-05-17T19:10:43.221Z,3.70
2023-05-17T19:14:02.501Z,3.42
2023-05-17T19:17:18.653Z,4.07
2023-05-17T19:20:47.650Z,6.83
2023-05-17T19:23:56.935Z,4.63
2023-05-17T19:30:47.346Z,5.43
2023-05-17T19:34:07.648Z,2.85
2023-05-17T19:37:24.092Z,6.90
2023-05-17T19:40:48.239Z,5.68
2023-05-17T19:44:03.350Z,5.22
2023-05-17T19:47:34.777Z,3.88
2023-05-17T19:50:48.744Z,4.15
2023-05-17T19:54:15.495Z,4.67
2023-05-17T19:57:35.804Z,5.65
2023-05-17T20:00:53.422Z,4.55
2023-05-17T20:04:14.885Z,3.35
2023-05-17T20:11:00.486Z,4.43
2023-05-17T20:14:03.730Z,5.28
2023-05-17T20:17:06.842Z,4.43
2023-05-17T20:20:12.801Z,4.72
2023-05-17T20:23:18.428Z,3.90
2023-05-17T20:26:27.309Z,3.20
2023-05-17T20:29:30.334Z,3.28
2023-05-17T20:32:33.124Z,4.00
2023-05-17T20:35:37.598Z,2.83
2023-05-17T20:38:49.684Z,4.30
2023-05-17T20:41:58.848Z,3.30
2023-05-17T20:45:38.113Z,4.82
2023-05-17T20:48:56.792Z,2.85
2023-05-17T20:52:08.301Z,3.42
2023-05-17T20:55:15.187Z,3.13
2023-05-17T20:59:14.419Z,3.77
2023-05-17T21:02:19.024Z,4.35
2023-05-17T21:05:40.149Z,4.28
2023-05-17T21:09:19.696Z,2.83
2023-05-17T21:13:13.888Z,2.60
2023-05-17T21:16:30.570Z,3.97
2023-05-17T21:19:48.110Z,3.05
2023-05-17T21:23:03.235Z,2.65
2023-05-17T21:26:42.948Z,2.25
2023-05-17T21:30:08.075Z,3.78
2023-05-17T21:33:20.009Z,5.27
2023-05-17T21:36:49.100Z,3.15
2023-05-17T21:39:59.516Z,3.70
2023-05-17T21:43:02.104Z,4.28
2023-05-17T21:46:07.416Z,3.05
2023-05-17T21:49:13.281Z,2.50
2023-05-17T21:52:20.886Z,3.38
2023-05-17T21:55:40.992Z,3.72
2023-05-17T21:58:53.018Z,6.30
2023-05-17T22:01:57.610Z,3.17
2023-05-17T22:05:01.911Z,6.27
2023-05-17T22:08:07.358Z,2.20
2023-05-17T22:11:18.544Z,2.97
2023-05-17T22:14:27.725Z,3.22
2023-05-17T22:17:43.206Z,2.83
2023-05-17T22:20:53.466Z,2.33
2023-05-17T22:24:02.558Z,2.58
2023-05-17T22:27:07.496Z,2.90
2023-05-17T22:30:10.103Z,2.78
2023-05-17T22:33:12.961Z,2.40
2023-05-17T22:36:22.285Z,3.67
2023-05-17T22:39:26.721Z,2.80
2023-05-17T22:42:31.666Z,3.75
2023-05-17T22:45:35.078Z,2.33
2023-05-17T22:48:40.711Z,4.63
2023-05-17T22:51:44.225Z,4.30
2023-05-17T22:54:55.302Z,2.92
2023-05-17T22:58:01.056Z,4.03
2023-05-17T23:01:05.825Z,4.43
2023-05-17T23:04:10.421Z,3.25
2023-05-17T23:07:15.422Z,4.70
2023-05-17T23:10:30.323Z,3.35
2023-05-17T23:13:47.658Z,3.60
2023-05-17T23:16:51.165Z,2.95
2023-05-17T23:19:54.116Z,9.52
2023-05-17T23:22:59.754Z,3.07
2023-05-17T23:26:06.443Z,2.17
2023-05-17T23:29:11.041Z,3.78
2023-05-17T23:32:13.856Z,5.07
2023-05-17T23:35:16.422Z,3.20
2023-05-17T23:38:25.396Z,4.63
2023-05-17T23:41:29.698Z,3.38
2023-05-17T23:44:35.163Z,2.88
2023-05-17T23:47:40.788Z,3.60
2023-05-17T23:50:43.577Z,3.70
2023-05-17T23:53:49.226Z,2.83
2023-05-17T23:56:51.952Z,2.50
2023-05-17T23:59:54.264Z,3.10
